Latest Weather Observations for Port Fairy

IDV60801

Issued at 6:35 pm EDT Wednesday 26 November 2014 (issued every 30 minutes, with the page automatically refreshed every 10 minutes)

About weather observations | Map of weather stations | Latest weather observations for VIC | Other Formats
Station Details ID: 090175 Name: PORT FAIRY AWS Lat: -38.39 Lon: 142.23 Height: 10.0 m
Data from the previous 72 hours. | See also: Recent months at Port Fairy
Date/Time
EDT
Temp
°C
App
Temp
°C
Dew
Point
Rel
Hum
%
Delta-T
°C
Wind Press
QNH
hPa
Press
MSL
hPa
Rain
since 9 am
mm
Dir
 
Spd
km/h
Gust
km/h
Spd
kts
Gust
kts
26/06:30pm 14.9 11.7 9.9 72 2.6 S 17 22 9 12 1023.7 1023.7 0.0
26/06:00pm 15.2 12.1 10.2 72 2.6 S 17 22 9 12 1023.5 1023.5 0.0
26/05:30pm 15.4 12.2 10.0 70 2.8 S 17 22 9 12 1023.5 1023.5 0.0
26/05:00pm 15.7 12.5 9.8 68 3.1 S 17 22 9 12 1023.5 1023.5 0.0
26/04:30pm 15.9 12.9 10.7 71 2.8 S 17 26 9 14 1023.4 1023.4 0.0
26/04:00pm 15.6 12.8 11.4 76 2.2 S 17 26 9 14 1023.3 1023.3 0.0
26/03:30pm 16.1 12.9 11.3 73 2.6 S 19 22 10 12 1023.3 1023.3 0.0
26/03:00pm 16.1 13.0 12.3 78 2.1 S 20 26 11 14 1023.2 1023.2 0.0
26/02:30pm 15.9 12.9 12.1 78 2.1 S 19 24 10 13 1023.1 1023.1 0.0
26/02:00pm 16.6 14.6 12.6 77 2.2 S 15 20 8 11 1023.1 1023.1 0.0
26/01:30pm 16.2 14.2 12.7 80 1.9 S 15 22 8 12 1023.0 1023.0 0.0
26/01:00pm 15.5 12.5 12.6 83 1.6 S 20 26 11 14 1023.0 1023.0 0.0
26/12:30pm 17.8 14.0 13.5 76 2.4 WSW 26 32 14 17 1022.9 1022.9 0.0
26/12:00pm 17.8 13.4 12.9 73 2.7 WSW 28 33 15 18 1022.7 1022.7 0.0
26/11:30am 16.2 12.5 12.6 79 2.0 WSW 24 33 13 18 1022.7 1022.7 0.0
26/11:00am 17.4 12.5 11.4 68 3.2 WSW 28 33 15 18 1022.6 1022.6 0.0
26/10:30am 16.9 12.4 11.4 70 3.0 W 26 33 14 18 1022.4 1022.4 0.0
26/10:00am 16.5 12.3 11.2 71 2.8 WSW 24 32 13 17 1022.3 1022.3 0.0
26/09:30am 16.1 12.6 10.8 71 2.8 W 20 28 11 15 1022.0 1022.0 0.0
26/09:00am 15.7 11.7 10.5 71 2.7 W 22 28 12 15 1021.9 1021.9 0.0
26/08:30am 15.2 11.6 10.0 71 2.7 W 19 24 10 13 1021.6 1021.6 0.0
26/08:00am 14.9 11.3 9.9 72 2.6 W 19 26 10 14 1021.4 1021.4 0.0
26/07:30am 14.6 10.3 9.4 71 2.7 W 22 28 12 15 1021.2 1021.2 0.0
26/07:00am 14.3 9.6 9.3 72 2.5 WSW 24 32 13 17 1021.1 1021.1 0.0
26/06:30am 14.1 10.3 9.7 75 2.3 WSW 20 28 11 15 1020.8 1020.8 0.0
26/06:00am 13.8 9.4 9.0 73 2.4 WSW 22 28 12 15 1020.5 1020.5 0.0
26/05:30am 14.0 10.2 9.0 72 2.5 W 19 28 10 15 1020.3 1020.3 0.0
26/05:00am 13.7 9.7 8.3 70 2.7 W 19 28 10 15 1020.1 1020.1 0.0
26/04:30am 13.5 8.6 8.6 72 2.5 WSW 24 30 13 16 1020.0 1020.0 0.0
26/04:00am 12.1 9.6 8.0 76 2.0 NNW 11 15 6 8 1020.1 1020.1 0.0
26/03:30am 12.4 9.8 7.9 74 2.2 NW 11 17 6 9 1020.3 1020.3 0.0
26/03:00am 12.4 10.4 7.3 71 2.5 NNW 7 13 4 7 1020.2 1020.2 0.0
26/02:30am 12.6 10.2 7.1 69 2.7 W 9 13 5 7 1020.5 1020.5 0.0
26/02:00am 13.7 11.0 7.5 66 3.0 WNW 11 19 6 10 1020.7 1020.7 0.0
26/01:30am 14.0 9.2 7.5 65 3.2 W 22 32 12 17 1021.0 1021.0 0.0
26/01:00am 13.9 9.6 7.7 66 3.0 WSW 20 30 11 16 1021.3 1021.3 0.0
26/12:30am 13.7 9.4 7.2 65 3.2 W 19 28 10 15 1021.4 1021.4 0.0
26/12:00am 13.6 9.0 6.7 63 3.3 W 20 30 11 16 1021.5 1021.5 0.0
 
Date/Time
EDT
Temp
°C
App
Temp
°C
Dew
Point
Rel
Hum
%
Delta-T
°C
Wind Press
QNH
hPa
Press
MSL
hPa
Rain
since 9 am
mm
Dir
 
Spd
km/h
Gust
km/h
Spd
kts
Gust
kts
25/11:30pm 13.1 8.0 6.0 62 3.4 W 22 35 12 19 1021.7 1021.7 0.0
25/11:00pm 13.4 7.4 7.0 65 3.1 WSW 28 35 15 19 1021.9 1021.9 0.0
25/10:30pm 13.6 8.5 7.8 68 2.9 WSW 24 33 13 18 1021.8 1021.8 0.0
25/10:00pm 14.0 9.4 8.2 68 2.9 W 22 32 12 17 1021.7 1021.7 0.0
25/09:30pm 13.4 9.0 7.2 66 3.0 W 20 33 11 18 1021.7 1021.7 0.0
25/09:00pm 13.6 8.1 7.4 66 3.0 WSW 26 33 14 18 1021.6 1021.6 0.0
25/08:30pm 13.9 8.0 7.4 65 3.2 WSW 28 35 15 19 1021.6 1021.6 0.0
25/08:00pm 14.4 9.4 8.1 66 3.1 WSW 24 33 13 18 1021.5 1021.5 0.0
25/07:30pm 14.7 9.0 8.2 65 3.3 WSW 28 37 15 20 1021.3 1021.3 0.0
25/07:00pm 14.9 9.2 8.2 64 3.3 WSW 28 35 15 19 1021.0 1021.0 0.0
25/06:30pm 15.1 9.4 8.3 64 3.4 WSW 28 35 15 19 1020.7 1020.7 0.0
25/06:00pm 15.2 9.0 8.0 62 3.6 WSW 30 37 16 20 1020.5 1020.5 0.0
25/05:30pm 15.5 9.4 8.3 62 3.6 WSW 30 35 16 19 1020.4 1020.4 0.0
25/05:00pm 16.1 9.1 8.6 61 3.8 WSW 35 44 19 24 1020.4 1020.4 0.0
25/04:30pm 16.5 9.7 9.2 62 3.8 WSW 35 43 19 23 1020.4 1020.4 0.0
25/04:00pm 16.9 10.4 9.1 60 4.0 WSW 33 44 18 24 1020.4 1020.4 0.0
25/03:30pm 17.5 11.0 8.9 57 4.5 WSW 33 43 18 23 1020.4 1020.4 0.0
25/03:00pm 17.2 10.6 8.4 56 4.5 WSW 33 44 18 24 1020.4 1020.4 0.0
25/02:30pm 17.5 10.7 9.4 59 4.2 WSW 35 43 19 23 1020.3 1020.3 0.0
25/02:00pm 16.8 9.6 9.0 60 4.0 WSW 37 46 20 25 1020.3 1020.3 0.0
25/01:30pm 17.0 10.8 7.9 55 4.6 W 30 41 16 22 1020.4 1020.4 0.0
25/01:00pm 18.0 11.7 9.1 56 4.6 WSW 32 41 17 22 1020.4 1020.4 0.0
25/12:30pm 16.9 10.6 9.6 62 3.8 WSW 33 43 18 23 1020.3 1020.3 0.0
25/12:00pm 16.4 10.1 7.3 55 4.5 WSW 30 41 16 22 1020.3 1020.3 0.0
25/11:30am 17.1 10.2 8.8 58 4.3 W 35 50 19 27 1020.2 1020.2 0.0
25/11:00am 17.4 10.4 8.3 55 4.6 WSW 35 46 19 25 1019.9 1019.9 0.0
25/10:30am 16.7 9.9 6.8 52 4.9 WSW 32 43 17 23 1019.6 1019.6 0.0
25/10:00am 15.6 9.2 8.4 62 3.6 WSW 32 43 17 23 1019.3 1019.3 0.0
25/09:30am 15.2 8.5 7.5 60 3.8 WSW 32 43 17 23 1018.9 1018.9 0.0
25/09:00am 15.1 9.2 7.4 60 3.8 WSW 28 41 15 22 1018.6 1018.6 0.8
25/08:41am 14.2 8.0 7.7 65 3.2 W 30 50 16 27 1018.4 1018.4 0.8
25/08:30am 14.7 8.3 7.0 60 3.8 W 30 41 16 22 1018.3 1018.3 0.8
25/08:00am 14.9 8.7 6.0 55 4.3 W 28 41 15 22 1017.8 1017.8 0.8
25/07:30am 14.5 7.8 7.5 63 3.5 W 32 46 17 25 1017.5 1017.5 0.8
25/07:00am 14.5 8.6 8.9 69 2.8 WSW 30 43 16 23 1017.0 1017.0 0.8
25/06:30am 14.0 7.0 8.6 70 2.7 WSW 35 44 19 24 1016.7 1016.7 0.8
25/06:00am 13.9 7.3 8.5 70 2.7 WSW 33 46 18 25 1016.1 1016.1 0.8
25/05:30am 13.5 6.2 8.6 72 2.5 WSW 37 44 20 24 1015.8 1015.8 0.8
25/05:00am 14.1 6.9 9.1 72 2.5 WSW 37 46 20 25 1015.5 1015.5 0.8
25/04:30am 13.5 6.6 8.8 73 2.4 WSW 35 46 19 25 1015.3 1015.3 0.8
25/04:00am 13.6 5.7 9.3 75 2.2 WSW 41 50 22 27 1015.2 1015.2 0.8
25/03:30am 12.7 5.8 8.8 77 2.0 W 35 46 19 25 1015.2 1015.2 0.8
25/03:00am 13.5 6.4 9.7 78 1.9 WSW 37 50 20 27 1015.1 1015.1 0.8
25/02:30am 13.4 6.9 9.1 75 2.2 W 33 46 18 25 1015.0 1015.0 0.8
25/02:08am 13.2 7.7 9.3 77 2.0 W 28 50 15 27 1015.0 1015.0 0.8
25/02:00am 12.9 6.9 8.8 76 2.1 W 30 43 16 23 1015.0 1015.0 0.8
25/01:31am 14.0 7.5 9.0 72 2.5 W 33 52 18 28 1014.9 1014.9 0.6
25/01:30am 13.8 7.4 8.6 71 2.6 W 32 46 17 25 1014.8 1014.8 0.6
25/01:00am 13.7 7.0 8.3 70 2.7 W 33 46 18 25 1014.7 1014.7 0.6
25/12:30am 13.6 7.1 8.0 69 2.8 W 32 43 17 23 1014.6 1014.6 0.6
25/12:00am 13.8 7.2 8.4 70 2.7 W 33 46 18 25 1014.5 1014.5 0.6
 
Date/Time
EDT
Temp
°C
App
Temp
°C
Dew
Point
Rel
Hum
%
Delta-T
°C
Wind Press
QNH
hPa
Press
MSL
hPa
Rain
since 9 am
mm
Dir
 
Spd
km/h
Gust
km/h
Spd
kts
Gust
kts
24/11:30pm 13.2 6.5 8.3 72 2.4 W 33 48 18 26 1014.4 1014.4 0.6
24/11:00pm 13.6 7.4 7.8 68 2.9 W 30 43 16 23 1014.2 1014.2 0.6
24/10:30pm 13.4 7.8 7.2 66 3.0 W 26 41 14 22 1014.1 1014.1 0.6
24/10:00pm 14.0 7.3 8.0 67 3.0 W 33 50 18 27 1013.9 1013.9 0.6
24/09:50pm 14.1 7.8 7.6 65 3.2 W 30 48 16 26 1013.7 1013.7 0.6
24/09:30pm 13.9 6.9 6.7 62 3.5 W 33 48 18 26 1013.5 1013.5 0.6
24/09:00pm 14.1 6.8 7.4 64 3.3 W 35 50 19 27 1013.3 1013.3 0.6
24/08:30pm 14.2 7.2 6.8 61 3.6 W 33 44 18 24 1013.0 1013.0 0.6
24/08:00pm 14.7 7.1 7.5 62 3.6 WSW 37 50 20 27 1012.5 1012.5 0.6
24/07:30pm 15.3 8.0 8.8 65 3.3 WSW 37 52 20 28 1011.9 1011.9 0.6
24/07:00pm 15.7 8.0 8.7 63 3.6 W 39 56 21 30 1011.2 1011.2 0.6
24/06:52pm 16.0 8.5 9.4 65 3.4 WSW 39 57 21 31 1011.0 1011.0 0.6
24/06:30pm 15.4 7.4 8.9 65 3.3 WSW 41 54 22 29 1010.6 1010.6 0.6
24/06:00pm 15.4 7.5 9.5 68 3.1 WSW 41 52 22 28 1010.3 1010.3 0.6
24/05:30pm 16.6 9.3 10.2 66 3.4 WSW 39 52 21 28 1010.1 1010.1 0.6
24/05:00pm 16.2 9.0 10.5 69 3.0 WSW 39 48 21 26 1010.0 1010.0 0.6
24/04:30pm 16.0 9.4 11.4 74 2.5 WSW 37 48 20 26 1009.8 1009.8 0.6
24/04:00pm 15.6 11.7 12.2 80 1.9 W 24 35 13 19 1009.8 1009.8 0.6
24/03:30pm 14.6 10.6 11.9 84 1.5 WSW 24 30 13 16 1009.8 1009.8 0.6
24/03:00pm 13.0 7.7 11.1 88 1.0 W 30 43 16 23 1010.0 1010.0 0.6
24/02:30pm 13.2 5.9 11.6 90 0.9 WSW 41 54 22 29 1009.9 1009.9 0.6
24/02:00pm 14.4 7.6 12.1 86 1.2 SW 39 52 21 28 1009.6 1009.6 0.4
24/01:49pm 15.9 10.4 12.5 80 1.9 WSW 33 50 18 27 1009.4 1009.4 0.4
24/01:30pm 18.4 16.0 14.5 78 2.3 WSW 20 26 11 14 1009.1 1009.1 0.4
24/01:00pm 18.0 15.4 13.7 76 2.4 WSW 20 26 11 14 1009.0 1009.0 0.4
24/12:30pm 17.8 16.3 14.3 80 2.0 WSW 15 22 8 12 1008.9 1008.9 0.4
24/12:00pm 16.8 16.7 13.9 83 1.6 W 7 11 4 6 1008.9 1008.9 0.4
24/11:30am 16.2 16.0 13.5 84 1.5 W 7 9 4 5 1009.1 1009.1 0.4
24/11:00am 16.1 15.6 12.8 81 1.8 W 7 9 4 5 1009.1 1009.1 0.4
24/10:30am 16.4 15.8 13.5 83 1.6 WSW 9 15 5 8 1008.7 1008.7 0.4
24/10:00am 16.1 16.5 12.5 79 2.0 ENE 2 6 1 3 1008.6 1008.6 0.0
24/09:30am 15.6 16.4 12.4 81 1.8 CALM 0 0 0 0 1008.9 1008.9 0.0
24/09:00am 15.3 15.7 12.4 83 1.6 SSW 2 6 1 3 1008.6 1008.6 1.0
24/08:30am 14.9 15.6 12.2 84 1.5 CALM 0 0 0 0 1008.6 1008.6 1.0
24/08:00am 14.4 13.0 11.0 80 1.8 NE 9 13 5 7 1009.2 1009.2 1.0
24/07:30am 15.3 13.8 10.5 73 2.5 ENE 9 13 5 7 1008.6 1008.6 0.0
24/07:00am 15.1 14.0 10.7 75 2.3 ENE 7 13 4 7 1008.9 1008.9 0.0
24/06:30am 14.8 13.2 10.2 74 2.4 NE 9 19 5 10 1008.6 1008.6 0.0
24/06:00am 14.6 12.9 9.8 73 2.5 NNE 9 13 5 7 1008.5 1008.5 0.0
24/05:30am 15.5 14.3 10.3 71 2.7 ENE 7 15 4 8 1008.4 1008.4 0.0
24/05:00am 15.6 13.3 10.4 71 2.7 ENE 13 22 7 12 1007.9 1007.9 0.0
24/04:30am 15.5 13.1 10.1 70 2.8 ENE 13 20 7 11 1008.1 1008.1 0.0
24/04:00am 15.3 13.5 10.7 74 2.4 E 11 17 6 9 1008.7 1008.7 0.0
24/03:30am 15.4 13.7 11.2 76 2.2 ENE 11 19 6 10 1008.7 1008.7 0.0
24/03:00am 15.2 13.9 11.4 78 2.0 ENE 9 13 5 7 1009.2 1009.2 0.0
24/02:30am 14.8 13.8 11.0 78 2.0 ENE 7 13 4 7 1009.8 1009.8 0.0
24/02:00am 15.5 14.9 11.7 78 2.1 E 6 9 3 5 1010.1 1010.1 0.0
24/01:30am 15.4 14.8 11.8 79 1.9 ENE 6 7 3 4 1011.1 1011.1 0.0
24/01:00am 15.4 14.8 11.8 79 1.9 ENE 6 9 3 5 1011.2 1011.2 0.0
24/12:30am 15.2 14.9 11.6 79 1.9 ENE 4 7 2 4 1012.0 1012.0 0.0
24/12:00am 15.4 14.8 11.8 79 1.9 ENE 6 11 3 6 1012.3 1012.3 0.0
 
Date/Time
EDT
Temp
°C
App
Temp
°C
Dew
Point
Rel
Hum
%
Delta-T
°C
Wind Press
QNH
hPa
Press
MSL
hPa
Rain
since 9 am
mm
Dir
 
Spd
km/h
Gust
km/h
Spd
kts
Gust
kts
23/11:30pm 15.5 14.5 12.4 82 1.7 ENE 9 13 5 7 1012.5 1012.5 0.0
23/11:00pm 15.7 14.5 12.8 83 1.6 ENE 11 19 6 10 1012.7 1012.7 0.0
23/10:30pm 15.7 15.3 12.5 81 1.8 E 6 9 3 5 1013.2 1013.2 0.0
23/10:00pm 15.4 14.7 12.0 80 1.8 E 7 9 4 5 1012.9 1012.9 0.0
23/09:30pm 15.4 14.7 12.0 80 1.8 E 7 11 4 6 1012.4 1012.4 0.0
23/09:00pm 15.4 14.8 11.6 78 2.0 ESE 6 7 3 4 1013.0 1013.0 0.0
23/08:30pm 16.0 15.3 12.0 77 2.2 SE 7 11 4 6 1012.6 1012.6 0.0
23/08:00pm 16.4 15.8 12.2 76 2.3 SE 7 11 4 6 1012.4 1012.4 0.0
23/07:30pm 16.8 15.8 12.3 75 2.5 SE 9 13 5 7 1012.2 1012.2 0.0
23/07:00pm 18.1 16.5 12.8 71 3.0 SSE 13 17 7 9 1011.4 1011.4 0.0

Other Formats:

Comma delimited format used in spreadsheet applications
http://www.bom.gov.au/fwo/IDV60801/IDV60801.94830.axf

JavaScript Object Notation format (JSON) in row-major order
http://www.bom.gov.au/fwo/IDV60801/IDV60801.94830.json